Time;durP1;ratioP1;P1;durP2;ratioP2;P2;SDS_P1;SDS_P2;PMS_P1;PMS_P2;Temp;Humidity;BMP_temperature;BMP_pressure;BME280_temperature;BME280_humidity;BME280_pressure;Samples;Min_cycle;Max_cycle;Signal;HPM_P1;HPM_P2
2022/04/23 00:02:30;;;;;;;14.27;12.77;;;;;;;15.97;45.59;97397.53;7030575;28;20316;-79
2022/04/23 00:05:52;;;;;;;13.87;12.47;;;;;;;16.03;45.33;97399.16;7030968;28;20203;-79
2022/04/23 00:09:13;;;;;;;14.47;12.13;;;;;;;15.94;45.40;97389.94;7036867;28;20268;-79
2022/04/23 00:12:35;;;;;;;14.37;12.90;;;;;;;15.89;45.57;97392.66;7036097;28;20647;-78
2022/04/23 00:15:57;;;;;;;14.47;13.13;;;;;;;15.90;45.57;97386.13;7035124;28;20258;-78
2022/04/23 00:19:20;;;;;;;15.33;13.73;;;;;;;15.95;45.90;97391.56;7036099;28;20265;-79
2022/04/23 00:22:42;;;;;;;16.93;12.47;;;;;;;16.01;45.80;97392.38;7036339;28;20236;-79
2022/04/23 00:26:04;;;;;;;13.87;12.40;;;;;;;16.14;44.87;97383.63;7035589;28;20212;-78
2022/04/23 00:29:26;;;;;;;14.43;12.97;;;;;;;16.01;45.07;97398.63;7035864;28;20291;-79
2022/04/23 00:32:47;;;;;;;14.17;12.77;;;;;;;15.88;45.46;97406.50;7035712;28;20261;-79
2022/04/23 00:36:11;;;;;;;22.43;13.17;;;;;;;14.67;48.61;97396.44;7035565;28;20216;-79
2022/04/23 00:39:33;;;;;;;14.93;13.07;;;;;;;15.25;47.41;97401.53;7035334;28;20354;-79
2022/04/23 00:42:55;;;;;;;13.20;11.80;;;;;;;15.40;46.72;97396.16;7035454;28;20221;-78
2022/04/23 00:46:17;;;;;;;19.63;12.47;;;;;;;15.38;46.47;97401.03;7035068;28;20205;-78
2022/04/23 00:49:39;;;;;;;13.17;11.87;;;;;;;15.23;46.82;97411.84;7035365;28;20206;-79
2022/04/23 00:53:03;;;;;;;13.77;12.37;;;;;;;14.98;46.94;97414.50;7035727;28;20624;-78
2022/04/23 00:56:25;;;;;;;14.33;12.80;;;;;;;14.63;48.02;97406.22;7034838;28;20763;-79
2022/04/23 00:59:48;;;;;;;13.87;12.40;;;;;;;14.79;47.74;97411.44;7034643;28;20236;-79
2022/04/23 01:03:12;;;;;;;13.60;12.23;;;;;;;14.33;49.17;97417.69;7035336;28;20209;-78
2022/04/23 01:06:35;;;;;;;15.03;11.90;;;;;;;14.44;48.50;97408.56;7043543;28;20201;-79
2022/04/23 01:09:57;;;;;;;13.50;12.17;;;;;;;14.39;48.86;97399.59;7050128;28;20231;-79
2022/04/23 01:13:19;;;;;;;14.30;12.67;;;;;;;13.75;49.75;97369.03;7044702;28;20289;-78
2022/04/23 01:16:42;;;;;;;16.27;12.63;;;;;;;13.96;49.81;97408.75;7033298;28;20348;-78
2022/04/23 01:20:07;;;;;;;14.63;12.90;;;;;;;14.01;50.04;97406.09;7033152;28;20336;-78
2022/04/23 01:23:29;;;;;;;14.23;12.63;;;;;;;14.38;49.77;97401.47;7034243;28;20332;-78
2022/04/23 01:26:50;;;;;;;12.90;11.60;;;;;;;14.48;49.83;97406.97;7033787;28;20262;-78
2022/04/23 01:30:12;;;;;;;13.23;11.93;;;;;;;14.13;50.65;97395.03;7034052;28;20224;-78
2022/04/23 01:33:35;;;;;;;13.30;11.50;;;;;;;14.59;50.22;97407.81;7033953;28;20212;-78
2022/04/23 01:36:58;;;;;;;13.23;11.93;;;;;;;14.59;51.42;97405.09;7033259;28;20217;-78
2022/04/23 01:40:20;;;;;;;14.03;11.53;;;;;;;14.80;50.83;97387.84;7034146;28;20223;-79
2022/04/23 01:43:41;;;;;;;12.50;11.20;;;;;;;14.27;53.56;97378.09;7033851;28;20234;-78
2022/04/23 01:47:03;;;;;;;12.10;10.90;;;;;;;14.69;52.77;97381.53;7032373;28;20300;-78
2022/04/23 01:50:25;;;;;;;13.40;12.10;;;;;;;14.24;54.12;97375.91;7033453;28;20570;-79
2022/04/23 01:53:48;;;;;;;13.30;11.87;;;;;;;13.88;54.70;97336.09;7033139;28;20201;-78
2022/04/23 01:57:09;;;;;;;12.23;11.07;;;;;;;14.64;53.45;97381.53;7032736;28;20208;-78
2022/04/23 02:00:31;;;;;;;12.10;10.50;;;;;;;14.85;52.48;97385.13;7032548;28;20395;-78
2022/04/23 02:03:52;;;;;;;13.83;11.37;;;;;;;14.95;52.05;97387.88;7033373;28;20227;-78
2022/04/23 02:07:14;;;;;;;13.00;11.70;;;;;;;15.09;51.35;97397.97;7032836;28;20231;-79
2022/04/23 02:10:37;;;;;;;13.07;11.77;;;;;;;14.44;52.06;97342.66;7033121;28;20221;-78
2022/04/23 02:13:59;;;;;;;13.60;12.30;;;;;;;14.18;53.85;97401.34;7033393;28;20200;-78
2022/04/23 02:17:20;;;;;;;13.30;11.90;;;;;;;14.47;53.68;97399.91;7031758;28;20219;-78
2022/04/23 02:20:42;;;;;;;12.27;11.07;;;;;;;14.64;52.75;97391.56;7032469;28;20312;-78
2022/04/23 02:24:04;;;;;;;13.77;12.33;;;;;;;14.07;54.13;97375.25;7032359;28;20250;-79
2022/04/23 02:27:27;;;;;;;13.10;11.80;;;;;;;13.94;54.69;97396.56;7032220;28;20243;-79
2022/04/23 02:30:49;;;;;;;11.97;10.83;;;;;;;13.69;55.73;97382.81;7032064;28;20621;-78
2022/04/23 02:34:11;;;;;;;13.07;11.63;;;;;;;13.24;57.48;97385.13;7032028;28;20197;-78
2022/04/23 02:37:34;;;;;;;11.97;10.77;;;;;;;13.69;55.88;97378.22;7031678;28;20211;-78
2022/04/23 02:40:56;;;;;;;12.57;11.27;;;;;;;13.59;56.32;97383.56;7032115;28;20272;-78
2022/04/23 02:44:19;;;;;;;13.60;11.70;;;;;;;13.15;57.28;97403.72;7032253;28;20223;-79
2022/04/23 02:47:44;;;;;;;11.80;10.60;;;;;;;13.59;56.53;97385.44;7031719;28;20219;-78
2022/04/23 02:51:06;;;;;;;11.87;10.77;;;;;;;13.79;55.78;97397.25;7031794;28;20222;-78
2022/04/23 02:54:28;;;;;;;12.20;11.00;;;;;;;13.97;54.53;97377.88;7032049;28;20203;-79
2022/04/23 02:57:49;;;;;;;12.53;11.27;;;;;;;14.21;53.49;97391.91;7030876;28;20201;-78
2022/04/23 03:01:12;;;;;;;11.63;10.53;;;;;;;14.20;53.82;97388.34;7032439;28;20223;-79
2022/04/23 03:04:34;;;;;;;11.60;10.50;;;;;;;14.02;54.97;97390.63;7031838;28;20230;-78
2022/04/23 03:07:55;;;;;;;11.33;10.23;;;;;;;14.30;53.58;97388.41;7031471;28;20744;-78
2022/04/23 03:11:17;;;;;;;11.63;10.43;;;;;;;14.52;52.93;97394.47;7032001;28;20228;-78
2022/04/23 03:14:38;;;;;;;11.03;9.93;;;;;;;14.55;53.04;97402.09;7032025;28;20262;-78
2022/04/23 03:18:08;;;;;;;11.63;10.47;;;;;;;14.31;52.90;97390.06;7030892;28;20616;-79
2022/04/23 03:21:29;;;;;;;11.80;10.40;;;;;;;14.22;53.40;97393.53;7031337;28;20213;-78
2022/04/23 03:24:51;;;;;;;10.53;9.13;;;;;;;14.21;53.42;97397.31;7032291;28;20231;-78
2022/04/23 03:28:14;;;;;;;10.90;9.80;;;;;;;14.29;53.34;97388.69;7030678;28;20304;-78
2022/04/23 03:31:36;;;;;;;10.97;9.97;;;;;;;13.97;54.42;97402.25;7031425;28;20724;-78
2022/04/23 03:35:04;;;;;;;11.90;10.80;;;;;;;13.96;54.51;97397.94;7031750;28;20235;-78
2022/04/23 03:38:26;;;;;;;11.47;10.33;;;;;;;13.76;54.69;97383.41;7031646;28;20651;-79
2022/04/23 03:41:48;;;;;;;11.20;10.07;;;;;;;13.98;54.54;97394.97;7030140;28;20737;-78
2022/04/23 03:45:10;;;;;;;11.53;10.27;;;;;;;13.93;54.39;97403.84;7030820;28;20914;-78
2022/04/23 03:48:32;;;;;;;11.60;10.50;;;;;;;14.09;53.95;97392.03;7034483;28;20212;-78
2022/04/23 03:51:54;;;;;;;13.07;10.87;;;;;;;13.74;54.40;97412.66;7041856;28;20264;-78
2022/04/23 03:55:16;;;;;;;12.83;11.53;;;;;;;12.97;57.00;97406.75;7037465;28;20246;-78
2022/04/23 03:58:38;;;;;;;14.97;13.57;;;;;;;12.78;57.64;97415.44;7029913;28;20213;-78
2022/04/23 04:02:04;;;;;;;12.47;11.20;;;;;;;13.10;57.37;97406.34;7031477;28;20233;-78
2022/04/23 04:05:26;;;;;;;13.83;12.33;;;;;;;12.88;57.75;97381.22;7029952;28;20288;-79
2022/04/23 04:08:50;;;;;;;15.63;12.20;;;;;;;12.19;59.60;97405.47;7034843;28;20206;-80
2022/04/23 04:12:11;;;;;;;14.27;12.63;;;;;;;12.27;59.77;97402.34;7033467;28;20225;-78
2022/04/23 04:15:34;;;;;;;13.53;11.50;;;;;;;12.68;58.47;97399.09;7023474;28;20200;-78
2022/04/23 04:18:55;;;;;;;14.60;13.10;;;;;;;12.71;58.91;97395.88;7022352;28;20747;-78
2022/04/23 04:22:17;;;;;;;13.97;12.57;;;;;;;12.28;59.82;97382.38;7032039;28;20337;-78
2022/04/23 04:25:40;;;;;;;14.63;12.90;;;;;;;12.65;59.35;97383.38;7048019;28;20203;-78
2022/04/23 04:29:01;;;;;;;12.67;11.43;;;;;;;12.93;57.93;97391.28;7049264;28;20229;-80
2022/04/23 04:32:23;;;;;;;14.03;12.63;;;;;;;12.65;58.63;97395.00;7048943;28;20223;-79
2022/04/23 04:35:44;;;;;;;13.73;12.27;;;;;;;13.00;57.68;97375.69;7046461;28;20210;-78
2022/04/23 04:39:06;;;;;;;12.53;11.33;;;;;;;13.49;55.99;97393.47;7040588;28;20214;-80
2022/04/23 04:42:29;;;;;;;14.03;11.80;;;;;;;13.41;55.99;97372.28;7042592;28;20237;-79
2022/04/23 04:45:51;;;;;;;14.90;13.37;;;;;;;13.20;56.51;97384.00;7034731;28;20203;-80
2022/04/23 04:49:13;;;;;;;14.00;12.47;;;;;;;13.69;55.34;97391.75;7043086;28;20221;-80
2022/04/23 04:52:34;;;;;;;12.73;11.43;;;;;;;13.66;55.69;97400.41;7043803;28;20229;-81
2022/04/23 04:55:57;;;;;;;13.20;11.90;;;;;;;13.90;54.48;97396.25;7039536;28;20209;-79
2022/04/23 04:59:21;;;;;;;13.40;12.10;;;;;;;13.64;55.10;97383.56;7046185;28;20200;-80
2022/04/23 05:02:43;;;;;;;12.77;11.40;;;;;;;14.19;53.62;97403.00;7046537;28;20294;-79
2022/04/23 05:06:05;;;;;;;13.00;11.70;;;;;;;14.11;54.21;97405.34;7046814;28;20235;-80
2022/04/23 05:09:26;;;;;;;13.53;12.20;;;;;;;13.72;54.97;97385.81;7038841;28;20208;-79
2022/04/23 05:12:48;;;;;;;14.13;12.63;;;;;;;13.66;55.33;97415.81;7046239;28;20215;-81
2022/04/23 05:16:11;;;;;;;13.30;12.00;;;;;;;13.98;54.95;97403.88;7047425;28;20614;-79
2022/04/23 05:19:32;;;;;;;12.80;11.50;;;;;;;14.11;54.73;97421.59;7030933;28;20221;-80
2022/04/23 05:22:54;;;;;;;13.17;11.87;;;;;;;14.32;53.68;97417.97;7038625;28;20697;-80
2022/04/23 05:26:15;;;;;;;14.43;12.93;;;;;;;13.63;55.06;97417.16;7038905;28;20217;-81
2022/04/23 05:29:37;;;;;;;13.30;12.00;;;;;;;13.11;57.63;97429.63;7030264;28;20203;-79
2022/04/23 05:33:00;;;;;;;12.83;11.53;;;;;;;13.41;56.16;97429.97;7032608;28;20207;-79
2022/04/23 05:36:21;;;;;;;12.67;11.37;;;;;;;13.51;56.41;97429.25;7029154;28;20749;-80
2022/04/23 05:39:43;;;;;;;11.67;10.57;;;;;;;14.31;54.12;97417.16;7039069;28;20248;-80
2022/04/23 05:43:05;;;;;;;11.50;10.43;;;;;;;13.69;55.69;97421.53;7040120;28;20225;-78
2022/04/23 05:46:26;;;;;;;12.50;11.30;;;;;;;13.58;56.15;97429.84;7033432;28;20208;-78
2022/04/23 05:49:49;;;;;;;11.37;10.27;;;;;;;14.56;53.44;97430.84;7033522;28;20226;-79
2022/04/23 05:53:11;;;;;;;10.97;9.87;;;;;;;14.82;52.55;97437.22;7033785;28;20205;-79
2022/04/23 05:56:33;;;;;;;10.93;9.87;;;;;;;15.06;51.25;97439.22;7032203;28;20214;-77
2022/04/23 05:59:55;;;;;;;12.00;10.83;;;;;;;14.90;52.11;97437.53;7032552;28;20308;-78
2022/04/23 06:03:17;;;;;;;12.00;10.67;;;;;;;15.13;52.02;97447.09;7031810;28;20595;-79
2022/04/23 06:06:40;;;;;;;11.57;10.43;;;;;;;14.79;52.09;97425.00;7031833;28;20291;-78
2022/04/23 06:10:02;;;;;;;10.93;9.93;;;;;;;14.90;51.80;97429.38;7029016;28;20237;-78
2022/04/23 06:13:23;;;;;;;12.67;9.93;;;;;;;14.71;52.17;97438.25;7023072;28;20672;-78
2022/04/23 06:16:45;;;;;;;11.53;10.23;;;;;;;14.69;52.40;97432.28;7015946;28;20208;-78
2022/04/23 06:20:07;;;;;;;11.13;9.93;;;;;;;15.23;50.95;97453.38;7031481;28;20795;-80
2022/04/23 06:23:30;;;;;;;10.67;9.67;;;;;;;14.84;51.79;97465.72;7008800;28;20239;-79
2022/04/23 06:26:52;;;;;;;11.27;9.23;;;;;;;15.13;51.17;97441.66;7019016;28;20217;-79
2022/04/23 06:30:15;;;;;;;9.87;8.87;;;;;;;15.46;50.31;97450.22;7018534;28;20595;-81
2022/04/23 06:33:37;;;;;;;10.23;9.10;;;;;;;14.93;51.48;97447.84;7021817;28;20212;-80
2022/04/23 06:36:59;;;;;;;9.57;8.67;;;;;;;15.27;51.42;97459.91;7025346;28;20215;-79
2022/04/23 06:40:22;;;;;;;9.33;8.43;;;;;;;14.75;52.59;97455.66;7033371;28;20373;-79
2022/04/23 06:43:44;;;;;;;13.33;9.17;;;;;;;15.44;51.13;97465.97;7033673;28;20211;-79
2022/04/23 06:47:06;;;;;;;8.93;8.13;;;;;;;14.97;52.25;97448.94;7033168;28;20231;-79
2022/04/23 06:50:27;;;;;;;8.60;7.80;;;;;;;15.87;49.33;97440.22;7020478;28;20281;-80
2022/04/23 06:53:49;;;;;;;8.63;7.83;;;;;;;15.74;49.77;97435.31;7019666;28;20282;-79
2022/04/23 06:57:12;;;;;;;8.07;7.37;;;;;;;15.30;50.27;97464.81;7033425;28;20734;-81
2022/04/23 07:00:33;;;;;;;7.80;7.10;;;;;;;15.22;50.72;97426.50;7033453;28;20229;-78
2022/04/23 07:03:55;;;;;;;7.93;7.13;;;;;;;15.88;49.99;97469.03;7021015;28;20233;-80
2022/04/23 07:07:16;;;;;;;7.27;6.60;;;;;;;15.32;49.99;97459.09;7027884;28;20212;-79
2022/04/23 07:10:38;;;;;;;7.53;6.87;;;;;;;15.22;50.33;97451.75;7023017;28;20233;-80
2022/04/23 07:14:01;;;;;;;7.57;6.87;;;;;;;15.23;50.64;97458.00;7033259;28;20239;-79
2022/04/23 07:17:25;;;;;;;7.97;7.27;;;;;;;15.23;50.65;97452.56;7003428;28;20201;-80
2022/04/23 07:20:46;;;;;;;7.10;6.50;;;;;;;16.44;47.96;97443.44;7007110;28;20309;-80
2022/04/23 07:24:10;;;;;;;6.40;5.80;;;;;;;16.15;48.30;97461.44;7011229;28;20304;-80
2022/04/23 07:27:32;;;;;;;8.10;7.30;;;;;;;15.26;49.93;97450.13;7005272;28;20205;-79
2022/04/23 07:30:55;;;;;;;7.13;6.53;;;;;;;16.13;48.40;97472.56;7003243;28;20221;-79
2022/04/23 07:37:56;;;;;;;7.10;6.30;;;;;;;15.38;50.88;97471.63;7029638;28;20522;-79
2022/04/23 07:41:20;;;;;;;7.27;6.60;;;;;;;16.54;47.38;97463.31;7029448;28;20213;-80
2022/04/23 07:44:42;;;;;;;7.30;6.60;;;;;;;16.23;46.84;97469.81;7018430;28;20248;-79
2022/04/23 07:48:05;;;;;;;7.17;6.47;;;;;;;15.40;49.19;97455.91;7031848;28;20657;-79
2022/04/23 07:51:28;;;;;;;7.07;6.33;;;;;;;17.03;45.98;97455.25;7031870;28;20282;-79
2022/04/23 07:54:49;;;;;;;7.23;6.53;;;;;;;16.42;47.58;97459.25;7032326;28;20344;-80
2022/04/23 07:58:11;;;;;;;7.77;7.07;;;;;;;16.91;45.36;97449.31;7031512;28;20916;-79
2022/04/23 08:01:32;;;;;;;7.50;6.80;;;;;;;16.86;46.02;97457.50;7029859;28;20308;-78
2022/04/23 08:04:55;;;;;;;7.37;6.03;;;;;;;17.16;45.59;97451.94;7030087;28;20236;-78
2022/04/23 08:08:17;;;;;;;8.17;6.70;;;;;;;16.94;45.56;97454.22;7030848;28;20580;-80
2022/04/23 08:11:39;;;;;;;7.13;5.97;;;;;;;16.14;47.92;97430.69;7030230;28;20231;-77
2022/04/23 08:15:00;;;;;;;7.80;7.00;;;;;;;17.03;45.47;97460.69;7030418;28;20205;-77
2022/04/23 08:18:22;;;;;;;7.60;6.33;;;;;;;15.36;49.18;97465.66;7030652;28;20683;-77
2022/04/23 08:21:45;;;;;;;7.50;6.67;;;;;;;16.26;47.30;97469.28;7027886;28;20225;-77
2022/04/23 08:25:08;;;;;;;8.03;7.33;;;;;;;16.72;45.69;97435.50;7029512;28;20252;-78
2022/04/23 08:32:08;;;;;;;11.57;7.93;;;;;;;15.41;48.30;97477.38;7032005;28;20768;-79
2022/04/23 08:35:30;;;;;;;8.47;7.30;;;;;;;15.42;49.80;97475.47;7038776;28;20345;-78
2022/04/23 08:38:55;;;;;;;7.30;6.60;;;;;;;16.59;46.60;97466.03;7008362;28;20213;-79
2022/04/23 08:42:17;;;;;;;7.97;7.23;;;;;;;15.83;47.56;97450.00;7007706;28;20222;-79
2022/04/23 08:45:40;;;;;;;10.27;6.53;;;;;;;16.56;45.82;97469.28;7008645;28;20236;-78
2022/04/23 08:49:09;;;;;;;8.20;7.00;;;;;;;16.05;47.90;97472.28;7018934;28;20210;-80
2022/04/23 08:52:33;;;;;;;7.37;6.67;;;;;;;15.27;49.20;97462.63;7009328;28;20260;-77
2022/04/23 08:55:56;;;;;;;7.73;6.83;;;;;;;15.68;48.74;97464.38;7017486;28;20349;-79
2022/04/23 08:59:20;;;;;;;7.07;6.37;;;;;;;16.44;46.88;97463.31;7031190;28;20194;-76
2022/04/23 09:02:42;;;;;;;6.57;5.77;;;;;;;16.71;46.06;97443.94;7007994;28;20230;-78
2022/04/23 09:06:04;;;;;;;6.50;5.83;;;;;;;17.36;44.90;97441.75;7006163;28;20226;-78
2022/04/23 09:09:25;;;;;;;7.77;6.20;;;;;;;16.82;45.65;97434.66;7006742;28;20197;-77
2022/04/23 09:12:56;;;;;;;6.40;5.70;;;;;;;16.36;46.22;97461.13;7007375;28;20255;-79
2022/04/23 09:23:44;;;;;;;6.80;5.70;;;;;;;16.37;47.20;97443.72;7028062;28;20227;-77
2022/04/23 09:27:06;;;;;;;6.23;5.63;;;;;;;16.54;47.16;97449.69;7031690;28;20322;-78
2022/04/23 09:30:36;;;;;;;7.03;5.60;;;;;;;16.78;46.11;97450.72;7028035;28;20221;-78
2022/04/23 09:33:58;;;;;;;6.10;5.27;;;;;;;16.51;46.74;97454.88;7016969;28;20224;-77
2022/04/23 09:38:11;;;;;;;6.17;5.53;;;;;;;16.90;45.96;97445.78;7020421;28;20229;-78
2022/04/23 09:41:20;;;;;;;7.77;5.80;;;;;;;17.24;44.57;97429.56;7019049;28;20760;-78
2022/04/23 09:44:42;;;;;;;7.83;5.97;;;;;;;16.25;46.48;97442.38;7017527;28;20216;-77
2022/04/23 09:48:18;;;;;;;6.00;5.23;;;;;;;17.08;46.21;97438.88;7007676;28;20679;-77
2022/04/23 09:51:41;;;;;;;5.93;5.13;;;;;;;16.76;45.42;97447.44;7013875;28;20258;-78
2022/04/23 09:55:03;;;;;;;6.20;5.60;;;;;;;16.73;45.59;97442.56;7020137;28;20201;-79
2022/04/23 09:58:25;;;;;;;5.90;5.40;;;;;;;17.29;44.98;97446.69;7033187;28;20673;-78
2022/04/23 10:01:48;;;;;;;6.50;5.80;;;;;;;17.05;44.94;97459.31;7032894;28;20257;-78
2022/04/23 10:05:12;;;;;;;7.00;6.27;;;;;;;16.71;45.27;97450.22;7035577;28;20210;-76
2022/04/23 10:08:34;;;;;;;6.20;5.40;;;;;;;16.33;46.59;97452.72;7038926;28;20197;-76
2022/04/23 10:12:02;;;;;;;6.47;5.87;;;;;;;17.22;44.95;97456.28;7031769;28;20713;-78
2022/04/23 10:15:24;;;;;;;5.90;5.10;;;;;;;18.24;43.72;97445.22;7033224;28;20652;-78
2022/04/23 10:18:46;;;;;;;8.00;6.60;;;;;;;17.93;42.74;97435.69;7029580;28;20227;-78
2022/04/23 10:22:19;;;;;;;6.70;6.00;;;;;;;18.49;41.92;97425.91;7004809;28;20252;-78
2022/04/23 10:25:49;;;;;;;6.27;5.67;;;;;;;18.07;42.59;97434.75;7003881;28;20230;-77
2022/04/23 10:29:13;;;;;;;7.37;6.67;;;;;;;17.01;45.08;97430.22;7004066;28;20205;-78
2022/04/23 10:32:39;;;;;;;6.77;6.00;;;;;;;18.21;43.09;97435.69;7003180;28;20218;-78
2022/04/23 10:36:08;;;;;;;8.20;7.03;;;;;;;18.21;42.15;97430.25;7002900;28;20221;-77
2022/04/23 10:39:31;;;;;;;7.17;6.47;;;;;;;18.64;41.62;97434.75;7003649;28;20363;-78
2022/04/23 10:43:09;;;;;;;7.93;7.13;;;;;;;18.97;41.13;97417.44;7003609;28;20298;-77
2022/04/23 10:46:46;;;;;;;7.83;7.03;;;;;;;17.53;42.97;97431.34;7002822;28;20222;-78
2022/04/23 10:50:30;;;;;;;7.63;6.90;;;;;;;17.49;43.52;97423.97;7002688;28;20348;-77
2022/04/23 10:53:54;;;;;;;7.20;6.47;;;;;;;17.96;43.50;97413.28;7003472;28;20687;-78
2022/04/23 10:57:17;;;;;;;9.13;7.57;;;;;;;18.55;42.03;97431.03;7003445;28;20225;-77
2022/04/23 11:00:44;;;;;;;9.27;7.57;;;;;;;16.58;45.94;97422.75;7009177;28;20294;-78
2022/04/23 11:04:13;;;;;;;7.83;7.03;;;;;;;18.16;43.42;97426.75;7015944;28;20707;-78
2022/04/23 11:14:56;;;;;;;8.60;6.83;;;;;;;18.21;42.49;97410.34;7003296;28;20275;-78
2022/04/23 11:18:17;;;;;;;6.60;6.00;;;;;;;18.14;42.72;97413.41;7015206;28;20222;-79
2022/04/23 11:21:39;;;;;;;8.90;7.13;;;;;;;18.50;41.54;97420.16;7012674;28;20309;-78
2022/04/23 11:25:01;;;;;;;8.50;6.60;;;;;;;17.32;44.37;97426.22;7003188;28;20233;-79
2022/04/23 11:28:23;;;;;;;7.90;7.10;;;;;;;17.55;44.54;97411.97;7002808;28;20316;-78
2022/04/23 11:31:52;;;;;;;7.13;6.43;;;;;;;17.50;44.39;97409.25;7002607;28;20599;-78
2022/04/23 11:35:13;;;;;;;10.93;7.50;;;;;;;16.99;45.65;97422.31;7030850;28;20267;-78
2022/04/23 11:38:42;;;;;;;9.00;7.50;;;;;;;17.32;44.46;97402.53;7030320;28;20298;-78
2022/04/23 11:42:04;;;;;;;8.03;7.23;;;;;;;16.93;45.56;97414.47;7031401;28;20228;-79
2022/04/23 11:45:26;;;;;;;9.17;7.20;;;;;;;16.70;46.06;97401.50;7030328;28;20678;-78
2022/04/23 11:48:50;;;;;;;11.50;8.37;;;;;;;16.74;46.13;97397.94;7030463;28;20375;-78
2022/04/23 11:52:13;;;;;;;9.23;7.50;;;;;;;18.46;42.82;97374.66;7031498;28;20236;-78
2022/04/23 11:55:35;;;;;;;8.30;7.33;;;;;;;17.47;44.10;97371.69;7030863;28;20201;-78
2022/04/23 11:58:58;;;;;;;8.37;7.43;;;;;;;18.42;42.98;97385.34;7010372;28;20212;-78
2022/04/23 12:02:21;;;;;;;6.70;6.00;;;;;;;19.13;41.44;97377.91;7004567;28;20268;-78
2022/04/23 12:05:44;;;;;;;8.47;7.50;;;;;;;18.56;42.14;97380.78;7007656;28;20296;-78
2022/04/23 12:09:07;;;;;;;7.83;7.03;;;;;;;18.63;41.93;97383.19;7008516;28;20220;-77
2022/04/23 12:12:30;;;;;;;7.07;6.37;;;;;;;18.91;42.08;97374.09;7017945;28;20689;-77
2022/04/23 12:15:51;;;;;;;8.07;7.20;;;;;;;19.24;41.00;97373.97;7007707;28;20207;-78
2022/04/23 12:19:14;;;;;;;9.30;6.80;;;;;;;19.50;41.08;97358.81;7008034;28;20240;-79
2022/04/23 12:22:37;;;;;;;8.57;7.53;;;;;;;19.09;41.60;97360.47;7007575;28;20223;-78
2022/04/23 12:26:08;;;;;;;8.17;6.83;;;;;;;19.74;39.79;97355.97;7007029;28;20299;-77
2022/04/23 12:40:44;;;;;;;7.70;6.80;;;;;;;18.53;42.10;97329.53;7029128;28;20300;-78
2022/04/23 12:44:19;;;;;;;9.63;7.63;;;;;;;18.73;42.13;97325.72;7024859;28;20205;-78
2022/04/23 12:47:41;;;;;;;10.93;9.03;;;;;;;19.03;41.54;97333.50;7034710;28;20238;-78
2022/04/23 12:51:05;;;;;;;7.63;6.93;;;;;;;20.08;39.80;97327.22;7030193;28;20253;-78
2022/04/23 12:54:27;;;;;;;8.10;7.30;;;;;;;18.63;41.79;97320.41;7030802;28;20237;-78
2022/04/23 12:57:51;;;;;;;7.90;7.00;;;;;;;19.13;41.70;97317.81;7005974;28;20207;-78
2022/04/23 13:01:13;;;;;;;8.40;7.60;;;;;;;19.94;39.35;97309.13;7027033;28;20236;-78
2022/04/23 13:04:35;;;;;;;9.37;8.17;;;;;;;19.48;39.99;97316.47;7015002;28;20232;-78
2022/04/23 13:11:36;;;;;;;9.00;8.10;;;;;;;19.66;39.14;97301.94;7022464;28;20221;-77
2022/04/23 13:14:59;;;;;;;8.80;7.97;;;;;;;19.39;40.62;97288.22;7023861;28;20241;-78
2022/04/23 13:18:21;;;;;;;9.53;7.67;;;;;;;19.87;39.67;97319.66;7016496;28;20208;-78
2022/04/23 13:21:43;;;;;;;8.60;7.70;;;;;;;19.21;41.06;97295.28;7018024;28;20222;-78
2022/04/23 13:25:05;;;;;;;8.60;7.70;;;;;;;19.36;40.97;97314.22;7024528;28;20272;-78
2022/04/23 13:28:27;;;;;;;8.20;7.43;;;;;;;19.48;40.13;97311.81;7017103;28;20207;-78
2022/04/23 13:31:50;;;;;;;9.47;7.80;;;;;;;18.74;42.10;97319.97;7016637;28;20230;-79
2022/04/23 13:35:14;;;;;;;8.73;7.83;;;;;;;19.62;40.99;97290.81;7015483;28;20226;-79
2022/04/23 13:38:35;;;;;;;8.47;7.60;;;;;;;19.79;40.47;97291.06;7015446;28;20224;-81
2022/04/23 13:41:57;;;;;;;9.47;8.57;;;;;;;19.49;40.52;97307.97;7005413;28;20228;-79
2022/04/23 13:45:19;;;;;;;10.33;8.17;;;;;;;19.07;41.18;97293.56;7005003;28;20227;-79
2022/04/23 13:48:43;;;;;;;8.67;7.70;;;;;;;18.93;42.33;97309.06;7010751;28;20207;-78
2022/04/23 13:52:06;;;;;;;9.07;8.17;;;;;;;19.70;41.10;97303.78;7033750;28;20705;-78
2022/04/23 13:55:27;;;;;;;9.80;8.80;;;;;;;19.63;40.47;97297.09;7034812;28;20261;-78
2022/04/23 13:58:49;;;;;;;11.20;9.10;;;;;;;18.03;43.27;97318.31;7032015;28;20235;-79
2022/04/23 14:13:09;;;;;;;10.27;8.97;;;;;;;20.05;40.15;97272.28;7023047;28;20710;-78
2022/04/23 14:16:30;;;;;;;11.07;9.97;;;;;;;19.85;40.04;97289.03;7030248;28;20214;-78
2022/04/23 14:19:52;;;;;;;10.27;9.37;;;;;;;19.51;40.43;97272.16;7032884;28;20729;-78
2022/04/23 14:23:15;;;;;;;11.63;10.43;;;;;;;18.31;43.25;97268.34;7032887;28;20216;-78
2022/04/23 14:26:37;;;;;;;11.63;10.50;;;;;;;18.35;43.62;97272.97;7030933;28;20278;-78
2022/04/23 14:29:58;;;;;;;13.47;10.73;;;;;;;19.04;42.39;97261.41;7032254;28;20693;-78
2022/04/23 14:33:20;;;;;;;11.80;10.70;;;;;;;18.44;43.34;97275.84;7035081;28;20202;-78
2022/04/23 14:36:41;;;;;;;12.50;10.33;;;;;;;18.54;42.93;97268.38;7034921;28;20243;-77
2022/04/23 14:40:06;;;;;;;11.67;10.53;;;;;;;18.96;42.37;97259.31;7034428;28;20229;-77
2022/04/23 14:43:29;;;;;;;12.40;11.13;;;;;;;19.25;41.44;97268.19;7031519;28;20586;-78
2022/04/23 14:46:51;;;;;;;10.87;9.73;;;;;;;19.60;40.99;97259.41;7028390;28;20231;-78
2022/04/23 14:50:13;;;;;;;10.80;9.70;;;;;;;19.76;41.18;97264.28;7006355;28;20230;-79
2022/04/23 14:53:33;;;;;;;11.37;10.03;;;;;;;19.80;40.05;97237.19;7004251;28;20884;-78
2022/04/23 14:56:56;;;;;;;12.83;11.40;;;;;;;19.49;40.92;97250.56;7028865;28;20234;-78
2022/04/23 15:00:18;;;;;;;13.73;10.93;;;;;;;18.28;43.48;97247.13;7048186;28;20231;-77
2022/04/23 15:03:43;;;;;;;12.27;10.63;;;;;;;18.86;42.86;97238.44;7033390;28;20207;-78
2022/04/23 15:07:05;;;;;;;10.17;9.13;;;;;;;20.16;40.43;97238.16;7030109;28;20227;-79
2022/04/23 15:10:27;;;;;;;11.47;10.37;;;;;;;18.61;43.44;97225.16;7031013;28;20277;-78
2022/04/23 15:13:50;;;;;;;12.20;10.90;;;;;;;18.36;43.46;97211.84;7031481;28;20692;-77
2022/04/23 15:17:11;;;;;;;12.37;11.13;;;;;;;18.81;42.58;97219.38;7028592;28;20764;-79
2022/04/23 15:20:35;;;;;;;13.50;10.80;;;;;;;19.56;41.46;97217.38;7030823;28;20222;-78
2022/04/23 15:23:57;;;;;;;12.50;11.20;;;;;;;19.46;41.39;97207.41;7027673;28;20220;-78
2022/04/23 15:27:18;;;;;;;11.90;10.50;;;;;;;19.96;40.42;97220.19;7010262;28;20315;-78
2022/04/23 15:30:41;;;;;;;12.37;11.07;;;;;;;19.08;41.69;97200.41;7013681;28;20211;-78
2022/04/23 15:34:03;;;;;;;12.60;11.00;;;;;;;18.90;42.38;97216.78;7011283;28;20230;-78
2022/04/23 15:37:24;;;;;;;12.23;11.03;;;;;;;19.37;41.92;97205.69;7014429;28;20240;-78
2022/04/23 15:40:46;;;;;;;12.83;11.50;;;;;;;19.46;41.72;97218.34;7025675;28;20321;-78
2022/04/23 15:44:08;;;;;;;14.03;11.37;;;;;;;19.20;41.82;97175.34;7008861;28;20368;-79
2022/04/23 15:47:31;;;;;;;13.13;11.57;;;;;;;19.16;42.28;97205.19;7022128;28;20229;-78
2022/04/23 15:50:53;;;;;;;13.90;11.10;;;;;;;19.53;41.33;97210.59;7009557;28;20248;-79
2022/04/23 15:54:15;;;;;;;12.33;11.03;;;;;;;19.12;42.17;97195.97;7011943;28;20291;-79
2022/04/23 15:57:36;;;;;;;13.43;11.77;;;;;;;18.40;43.66;97192.97;7009449;28;20213;-78
2022/04/23 16:00:59;;;;;;;11.57;10.33;;;;;;;19.45;41.90;97202.28;7008528;28;20224;-79
2022/04/23 16:04:24;;;;;;;13.93;11.40;;;;;;;19.44;41.33;97201.47;7012342;28;20269;-79
2022/04/23 16:07:45;;;;;;;12.60;11.03;;;;;;;19.99;40.87;97197.66;7011117;28;20225;-79
2022/04/23 16:11:07;;;;;;;12.73;11.47;;;;;;;19.43;41.85;97188.06;7007482;28;20227;-79
2022/04/23 16:14:29;;;;;;;13.10;11.57;;;;;;;20.17;40.43;97188.56;7009605;28;20204;-78
2022/04/23 16:17:50;;;;;;;12.13;10.80;;;;;;;20.44;40.34;97183.09;7008211;28;20296;-79
2022/04/23 16:21:14;;;;;;;12.03;10.83;;;;;;;20.47;40.11;97181.66;7005482;28;20227;-79
2022/04/23 16:24:36;;;;;;;14.60;10.83;;;;;;;19.68;40.45;97168.47;7008369;28;20224;-79
2022/04/23 16:27:57;;;;;;;12.37;10.27;;;;;;;19.52;41.06;97153.50;7011811;28;20285;-79
2022/04/23 16:31:19;;;;;;;12.20;10.77;;;;;;;19.47;41.55;97180.91;7019228;28;20320;-78